Time;durP1;ratioP1;P1;durP2;ratioP2;P2;SDS_P1;SDS_P2;PMS_P1;PMS_P2;Temp;Humidity;BMP_temperature;BMP_pressure;BME280_temperature;BME280_humidity;BME280_pressure;Samples;Min_cycle;Max_cycle;Signal;HPM_P1;HPM_P2
2023/06/14 00:00:22;;;;;;;16.90;8.80;;;;;;;40.69;34.62;101240.88;5093443;28;20432;-85
2023/06/14 00:02:48;;;;;;;25.00;10.70;;;;;;;40.86;34.10;101239.31;5093795;28;20991;-84
2023/06/14 00:05:14;;;;;;;16.30;10.30;;;;;;;41.03;34.38;101240.16;5078360;28;20448;-85
2023/06/14 00:07:44;;;;;;;21.87;8.33;;;;;;;40.91;33.90;101231.03;5083991;28;20416;-85
2023/06/14 00:10:14;;;;;;;15.70;9.93;;;;;;;40.92;34.19;101230.69;5078081;28;20500;-85
2023/06/14 00:12:41;;;;;;;16.37;9.90;;;;;;;40.99;34.40;101232.94;5107176;28;20427;-85
2023/06/14 00:15:09;;;;;;;23.27;11.27;;;;;;;41.02;34.44;101221.44;5113134;28;20408;-83
2023/06/14 00:17:36;;;;;;;19.03;9.83;;;;;;;40.98;34.33;101213.09;5114013;28;20416;-82
2023/06/14 00:20:07;;;;;;;22.77;9.90;;;;;;;40.94;34.50;101220.28;5097406;28;20440;-83
2023/06/14 00:22:34;;;;;;;18.93;8.50;;;;;;;41.03;34.27;101212.16;5109206;28;20951;-83
2023/06/14 00:25:00;;;;;;;21.67;11.83;;;;;;;40.50;35.05;101218.59;5113731;28;20435;-83
2023/06/14 00:27:26;;;;;;;20.07;8.80;;;;;;;40.64;34.90;101213.84;5113200;28;20426;-82
2023/06/14 00:29:52;;;;;;;23.00;10.20;;;;;;;40.96;34.19;101209.13;5113600;28;20412;-84
2023/06/14 00:32:18;;;;;;;17.63;8.43;;;;;;;40.69;34.54;101210.94;5112434;28;20208;-82
2023/06/14 00:34:44;;;;;;;16.37;10.13;;;;;;;40.83;33.98;101207.31;5113689;28;20423;-83
2023/06/14 00:37:10;;;;;;;21.63;8.80;;;;;;;40.99;34.13;101203.00;5112228;28;20432;-82
2023/06/14 00:39:36;;;;;;;22.30;12.53;;;;;;;40.75;34.34;101195.28;5112911;28;20630;-83
2023/06/14 00:42:02;;;;;;;12.40;8.80;;;;;;;40.93;34.19;101183.31;5112177;28;20857;-82
2023/06/14 00:44:28;;;;;;;21.30;9.97;;;;;;;40.97;33.88;101183.50;5112983;28;20177;-84
2023/06/14 00:46:54;;;;;;;15.80;9.03;;;;;;;40.69;34.62;101175.59;5111942;28;20530;-83
2023/06/14 00:49:59;;;;;;;15.83;8.20;;;;;;;40.55;35.25;101177.66;5112912;28;20536;-83
2023/06/14 00:52:25;;;;;;;19.43;8.70;;;;;;;40.73;34.78;101179.28;5112819;28;20958;-85
2023/06/14 00:54:51;;;;;;;23.87;9.30;;;;;;;40.46;35.30;101187.69;5113331;28;20443;-86
2023/06/14 00:57:17;;;;;;;21.77;10.40;;;;;;;40.79;34.85;101172.56;5112806;28;20786;-85
2023/06/14 00:59:44;;;;;;;20.93;8.07;;;;;;;40.86;35.23;101174.81;5112546;28;20463;-85
2023/06/14 01:02:11;;;;;;;15.30;9.50;;;;;;;40.87;34.87;101173.69;5113183;28;20528;-85
2023/06/14 01:04:44;;;;;;;15.23;10.07;;;;;;;40.95;34.53;101177.59;5112881;28;20431;-84
2023/06/14 01:07:38;;;;;;;24.70;9.20;;;;;;;40.85;34.65;101175.94;5073477;28;20433;-83
2023/06/14 01:13:45;;;;;;;18.17;7.30;;;;;;;40.74;34.70;101175.44;5087852;28;20411;-83
2023/06/14 01:16:11;;;;;;;16.07;8.00;;;;;;;40.88;34.47;101166.31;5113344;28;20481;-85
2023/06/14 01:18:38;;;;;;;27.07;9.60;;;;;;;40.53;34.61;101174.47;5112662;28;20460;-85
2023/06/14 01:21:08;;;;;;;24.70;9.40;;;;;;;40.78;34.75;101170.19;5111199;28;20789;-85
2023/06/14 01:23:34;;;;;;;23.80;9.10;;;;;;;40.81;34.37;101167.59;5092638;28;20949;-85
2023/06/14 01:26:03;;;;;;;21.20;9.83;;;;;;;40.99;34.00;101171.16;5092542;28;20424;-85
2023/06/14 01:28:33;;;;;;;16.47;8.90;;;;;;;41.00;33.71;101169.25;5092642;28;20964;-85
2023/06/14 01:31:04;;;;;;;16.47;8.40;;;;;;;40.81;34.28;101167.59;5092763;28;20924;-85
2023/06/14 01:33:32;;;;;;;30.03;10.80;;;;;;;40.54;35.34;101157.03;5103281;28;20429;-85
2023/06/14 01:35:59;;;;;;;18.70;9.07;;;;;;;40.74;35.17;101155.59;5111716;28;20463;-85
2023/06/14 01:38:27;;;;;;;14.27;9.30;;;;;;;40.64;35.25;101147.75;5101068;28;20448;-82
2023/06/14 01:40:56;;;;;;;20.43;10.27;;;;;;;40.67;34.54;101147.13;5092116;28;20882;-85
2023/06/14 01:43:23;;;;;;;15.17;8.53;;;;;;;40.69;34.65;101153.03;5092068;28;20869;-85
2023/06/14 01:45:51;;;;;;;16.30;10.30;;;;;;;40.77;34.54;101142.19;5105736;28;20424;-85
2023/06/14 01:48:19;;;;;;;16.10;9.10;;;;;;;40.74;34.69;101145.53;5092519;28;20515;-85
2023/06/14 01:50:45;;;;;;;14.57;9.20;;;;;;;40.99;34.75;101135.00;5092634;28;20473;-85
2023/06/14 01:53:11;;;;;;;23.27;9.47;;;;;;;40.72;34.72;101141.53;5091791;28;20574;-85
2023/06/14 01:55:37;;;;;;;16.20;7.97;;;;;;;40.89;34.18;101140.75;5092373;28;20507;-84
2023/06/14 01:58:04;;;;;;;16.80;7.50;;;;;;;40.85;34.60;101137.06;5092046;28;20226;-85
2023/06/14 02:00:30;;;;;;;18.20;8.83;;;;;;;40.81;34.95;101129.53;5092502;28;20455;-85
2023/06/14 02:02:56;;;;;;;18.90;9.07;;;;;;;40.70;34.90;101125.53;5092255;28;20928;-84
2023/06/14 02:05:24;;;;;;;17.53;10.30;;;;;;;40.71;34.14;101113.53;5092737;28;20411;-83
2023/06/14 02:07:50;;;;;;;21.87;9.70;;;;;;;40.69;34.44;101118.47;5079234;28;20421;-83
2023/06/14 02:10:17;;;;;;;21.30;9.00;;;;;;;40.62;34.50;101110.00;5104587;28;20530;-83
2023/06/14 02:12:44;;;;;;;18.60;10.40;;;;;;;40.86;34.28;101111.44;5105088;28;20797;-83
2023/06/14 02:15:16;;;;;;;27.93;9.33;;;;;;;40.90;34.19;101124.13;5078395;28;20486;-83
2023/06/14 02:17:53;;;;;;;14.77;8.30;;;;;;;40.13;35.16;101116.59;5093860;28;20955;-82
2023/06/14 02:20:20;;;;;;;15.17;8.33;;;;;;;40.45;34.92;101115.38;5104003;28;20405;-83
2023/06/14 02:22:46;;;;;;;14.97;8.80;;;;;;;40.79;34.52;101118.16;5092760;28;20863;-83
2023/06/14 02:25:11;;;;;;;20.47;10.17;;;;;;;40.76;34.70;101105.22;5091800;28;20416;-83
2023/06/14 02:27:38;;;;;;;14.73;9.23;;;;;;;40.65;34.73;101114.00;5091890;28;20416;-83
2023/06/14 02:30:05;;;;;;;20.03;8.47;;;;;;;40.76;34.23;101113.38;5091734;28;20198;-83
2023/06/14 02:32:31;;;;;;;24.90;10.17;;;;;;;40.84;34.85;101116.41;5092271;28;20469;-85
2023/06/14 02:34:57;;;;;;;23.73;10.63;;;;;;;40.50;35.25;101117.97;5092313;28;21018;-85
2023/06/14 02:37:23;;;;;;;19.93;8.93;;;;;;;40.56;34.93;101114.00;5091733;28;20408;-85
2023/06/14 02:39:49;;;;;;;21.43;9.80;;;;;;;40.56;34.83;101105.84;5092024;28;20293;-84
2023/06/14 02:42:15;;;;;;;18.87;9.93;;;;;;;40.52;35.05;101099.47;5093617;28;20169;-85
2023/06/14 02:44:41;;;;;;;25.13;10.77;;;;;;;40.79;34.57;101093.69;5092214;28;20427;-84
2023/06/14 02:47:07;;;;;;;15.70;9.23;;;;;;;40.67;34.51;101098.97;5093732;28;20439;-85
2023/06/14 02:49:33;;;;;;;22.53;10.57;;;;;;;40.83;34.29;101107.47;5092681;28;21009;-84
2023/06/14 02:51:59;;;;;;;14.67;7.53;;;;;;;40.69;34.39;101094.00;5094965;28;20408;-83
2023/06/14 02:54:25;;;;;;;17.07;9.63;;;;;;;40.90;34.70;101096.91;5092646;28;20443;-83
2023/06/14 02:56:51;;;;;;;16.97;9.07;;;;;;;40.81;34.23;101107.75;5093154;28;20429;-82
2023/06/14 02:59:17;;;;;;;19.10;9.97;;;;;;;40.87;34.33;101096.72;5092202;28;20460;-83
2023/06/14 03:01:43;;;;;;;20.30;11.53;;;;;;;40.84;34.00;101094.66;5092920;28;20420;-83
2023/06/14 03:04:09;;;;;;;15.40;8.10;;;;;;;40.72;33.70;101098.81;5091790;28;20436;-83
2023/06/14 03:06:36;;;;;;;13.70;7.97;;;;;;;40.73;33.61;101105.06;5090108;28;20428;-83
2023/06/14 03:09:05;;;;;;;19.70;8.43;;;;;;;40.62;34.02;101101.84;5080134;28;20516;-83
2023/06/14 03:11:32;;;;;;;16.03;8.33;;;;;;;40.60;34.70;101111.44;5091168;28;20505;-83
2023/06/14 03:13:59;;;;;;;22.03;9.33;;;;;;;40.50;34.68;101107.13;5090946;28;20425;-83
2023/06/14 03:16:25;;;;;;;17.97;9.67;;;;;;;40.58;34.53;101108.22;5091556;28;20555;-83
2023/06/14 03:18:51;;;;;;;20.57;11.43;;;;;;;40.58;34.48;101103.63;5091490;28;20535;-82
2023/06/14 03:21:19;;;;;;;14.83;8.83;;;;;;;40.48;34.21;101103.91;5094720;28;20424;-83
2023/06/14 03:23:45;;;;;;;17.67;8.90;;;;;;;40.55;33.93;101105.03;5095641;28;20531;-83
2023/06/14 03:26:14;;;;;;;20.07;9.57;;;;;;;40.39;34.18;101097.63;5096405;28;20504;-83
2023/06/14 03:28:48;;;;;;;36.80;11.33;;;;;;;40.36;34.95;101106.44;5095910;28;21081;-83
2023/06/14 03:31:14;;;;;;;18.40;8.90;;;;;;;40.73;34.44;101103.13;5096567;28;20447;-82
2023/06/14 03:33:40;;;;;;;19.50;8.73;;;;;;;40.07;35.28;101086.06;5095955;28;20421;-82
2023/06/14 03:36:07;;;;;;;15.27;8.00;;;;;;;40.01;35.18;101090.81;5096895;28;21061;-83
2023/06/14 03:38:34;;;;;;;11.00;7.90;;;;;;;40.42;34.71;101084.22;5094737;28;20463;-82
2023/06/14 03:41:00;;;;;;;16.40;9.33;;;;;;;40.64;34.62;101085.19;5096247;28;20490;-86
2023/06/14 03:43:26;;;;;;;24.90;9.00;;;;;;;40.63;34.61;101089.03;5095564;28;20412;-85
2023/06/14 03:45:52;;;;;;;20.80;9.30;;;;;;;40.43;34.74;101087.72;5095754;28;20248;-85
2023/06/14 03:48:18;;;;;;;21.40;8.90;;;;;;;40.37;34.31;101083.56;5095594;28;20420;-85
2023/06/14 03:50:44;;;;;;;14.43;8.63;;;;;;;40.22;34.66;101093.78;5096013;28;20420;-84
2023/06/14 03:53:10;;;;;;;24.20;8.70;;;;;;;40.32;34.55;101097.28;5095294;28;20185;-85
2023/06/14 03:55:37;;;;;;;21.63;9.50;;;;;;;40.39;34.79;101092.19;5095533;28;20421;-83
2023/06/14 03:58:03;;;;;;;23.43;10.67;;;;;;;40.27;34.88;101103.72;5094798;28;20429;-84
2023/06/14 04:00:29;;;;;;;15.47;8.40;;;;;;;40.44;34.23;101102.91;5095817;28;20956;-83
2023/06/14 04:02:55;;;;;;;25.57;9.83;;;;;;;40.19;34.65;101109.91;5095206;28;20424;-84
2023/06/14 04:05:22;;;;;;;18.20;9.57;;;;;;;39.83;35.29;101107.34;5095562;28;20413;-83
2023/06/14 04:07:50;;;;;;;16.17;8.60;;;;;;;40.02;34.53;101107.91;5081431;28;20179;-85
2023/06/14 04:10:29;;;;;;;20.67;9.50;;;;;;;40.18;34.32;101114.53;5120494;27;20473;-84
2023/06/14 04:12:55;;;;;;;18.20;8.47;;;;;;;40.41;34.49;101109.81;5116971;27;20496;-85
2023/06/14 04:15:21;;;;;;;24.60;8.20;;;;;;;39.98;34.90;101121.34;5135656;27;20415;-84
2023/06/14 04:17:47;;;;;;;16.27;8.57;;;;;;;39.92;35.32;101116.34;5116303;27;20419;-84
2023/06/14 04:20:13;;;;;;;17.87;9.53;;;;;;;40.24;34.63;101124.16;5117126;27;20181;-85
2023/06/14 04:22:40;;;;;;;22.03;8.03;;;;;;;40.22;34.42;101139.19;5116963;27;20454;-85
2023/06/14 04:25:08;;;;;;;19.20;9.87;;;;;;;40.28;34.08;101144.16;5109203;28;20798;-85
2023/06/14 04:27:36;;;;;;;13.63;8.07;;;;;;;40.50;33.59;101147.91;5115778;27;20443;-82
2023/06/14 04:30:02;;;;;;;16.43;8.27;;;;;;;40.59;33.80;101142.47;5097589;28;20416;-83
2023/06/14 04:32:38;;;;;;;17.57;9.20;;;;;;;40.50;34.12;101145.16;5097215;27;20968;-82
2023/06/14 04:35:10;;;;;;;20.20;8.80;;;;;;;40.35;34.50;101153.75;5097402;28;20424;-83
2023/06/14 04:37:39;;;;;;;20.23;10.40;;;;;;;40.33;34.50;101153.25;5093339;28;20962;-83
2023/06/14 04:40:06;;;;;;;20.60;8.97;;;;;;;40.51;34.49;101166.59;5097383;28;20451;-83
2023/06/14 04:42:32;;;;;;;25.07;9.53;;;;;;;40.41;34.26;101164.16;5096198;28;20416;-83
2023/06/14 04:44:58;;;;;;;21.73;8.23;;;;;;;40.50;34.23;101172.38;5097704;28;20426;-84
2023/06/14 04:47:29;;;;;;;28.57;9.80;;;;;;;40.43;34.45;101182.88;5097835;28;20412;-83
2023/06/14 04:49:56;;;;;;;16.57;10.40;;;;;;;40.66;34.07;101178.16;5097538;28;20436;-82
2023/06/14 04:52:22;;;;;;;19.20;8.57;;;;;;;40.55;34.53;101192.06;5098157;28;20416;-83
2023/06/14 04:54:49;;;;;;;16.70;9.03;;;;;;;40.74;33.95;101188.25;5097752;28;20597;-82
2023/06/14 04:57:16;;;;;;;21.57;9.97;;;;;;;40.71;33.54;101192.41;5116270;27;20816;-83
2023/06/14 04:59:44;;;;;;;19.40;10.47;;;;;;;40.84;33.86;101189.88;5098041;27;20467;-85
2023/06/14 05:02:11;;;;;;;14.90;7.93;;;;;;;40.89;33.38;101187.00;5097995;28;20419;-85
2023/06/14 05:04:40;;;;;;;21.13;11.70;;;;;;;40.60;34.12;101190.31;5099169;27;20440;-85
2023/06/14 05:07:08;;;;;;;14.67;9.20;;;;;;;40.77;34.34;101204.75;5079253;28;20831;-85
2023/06/14 05:09:37;;;;;;;24.70;11.07;;;;;;;40.70;33.75;101209.03;5090091;28;20427;-85
2023/06/14 05:12:03;;;;;;;18.47;9.07;;;;;;;40.76;34.34;101208.59;5092591;28;20494;-86
2023/06/14 05:14:29;;;;;;;20.03;9.07;;;;;;;40.55;34.42;101216.53;5093008;28;20895;-85
2023/06/14 05:16:55;;;;;;;15.50;8.50;;;;;;;40.74;33.84;101218.16;5092802;28;20445;-85
2023/06/14 05:19:21;;;;;;;17.20;10.47;;;;;;;40.79;33.60;101216.09;5093129;28;20285;-84
2023/06/14 05:21:47;;;;;;;17.37;8.53;;;;;;;40.66;34.14;101225.19;5093105;28;20512;-85
2023/06/14 05:24:14;;;;;;;21.13;9.00;;;;;;;40.49;34.01;101219.72;5092896;28;20420;-84
2023/06/14 05:26:40;;;;;;;14.87;8.67;;;;;;;40.65;33.93;101222.81;5093101;28;20427;-85
2023/06/14 05:29:06;;;;;;;22.50;9.20;;;;;;;40.76;34.06;101215.91;5093895;28;20417;-83
2023/06/14 05:31:32;;;;;;;17.83;9.17;;;;;;;40.59;34.72;101224.06;5094319;28;20483;-82
2023/06/14 05:33:58;;;;;;;19.77;9.00;;;;;;;40.77;33.99;101226.50;5084144;28;20426;-82
2023/06/14 05:36:24;;;;;;;20.97;9.10;;;;;;;40.85;33.76;101221.38;5101843;28;20435;-82
2023/06/14 05:38:57;;;;;;;15.07;9.07;;;;;;;40.72;33.48;101218.47;5103019;28;20464;-82
2023/06/14 05:41:27;;;;;;;22.93;9.77;;;;;;;40.79;33.12;101218.00;5107870;28;20494;-82
2023/06/14 05:43:55;;;;;;;17.90;10.50;;;;;;;40.88;33.17;101216.09;5090791;28;20424;-82
2023/06/14 05:46:25;;;;;;;21.70;11.60;;;;;;;40.54;34.30;101214.94;5098379;28;20447;-82
2023/06/14 05:48:52;;;;;;;21.33;12.23;;;;;;;40.84;34.16;101217.06;5101516;28;20518;-82
2023/06/14 05:51:21;;;;;;;20.60;10.03;;;;;;;40.43;35.00;101221.72;5097880;28;20956;-83
2023/06/14 05:53:47;;;;;;;15.47;9.37;;;;;;;40.60;34.32;101228.38;5102255;28;20475;-83
2023/06/14 05:56:14;;;;;;;15.60;10.77;;;;;;;40.59;35.11;101224.88;5080572;28;20444;-82
2023/06/14 05:58:41;;;;;;;19.73;12.43;;;;;;;40.67;34.94;101232.22;5085968;28;20873;-84
2023/06/14 06:01:07;;;;;;;25.17;14.77;;;;;;;40.60;35.09;101226.47;5098407;28;20417;-84
2023/06/14 06:03:34;;;;;;;29.37;13.60;;;;;;;40.49;35.08;101236.81;5102436;28;20515;-84
2023/06/14 06:06:00;;;;;;;18.67;13.30;;;;;;;40.48;35.11;101235.22;5095820;28;20433;-83
2023/06/14 06:08:29;;;;;;;19.60;12.73;;;;;;;40.54;35.38;101239.41;5083069;28;20432;-81
2023/06/14 06:10:56;;;;;;;19.30;12.77;;;;;;;40.47;35.83;101236.34;5108239;28;20463;-82
2023/06/14 06:13:34;;;;;;;25.37;14.37;;;;;;;40.36;35.70;101236.91;5117600;27;20415;-85
2023/06/14 06:16:01;;;;;;;23.90;15.33;;;;;;;40.22;35.80;101229.66;5090139;28;20424;-83
2023/06/14 06:18:27;;;;;;;23.30;14.00;;;;;;;40.32;35.73;101235.91;5092172;28;20444;-90
2023/06/14 06:20:53;;;;;;;29.33;16.53;;;;;;;40.31;35.54;101243.28;5099207;28;20863;-87
2023/06/14 06:23:19;;;;;;;25.57;15.37;;;;;;;40.24;35.66;101235.56;5101080;28;20178;-89
2023/06/14 06:25:46;;;;;;;23.20;17.30;;;;;;;40.29;35.93;101246.31;5099395;28;20178;-90
2023/06/14 06:28:13;;;;;;;24.80;15.20;;;;;;;40.26;35.73;101243.41;5100814;28;20583;-90
2023/06/14 06:30:42;;;;;;;22.27;17.40;;;;;;;40.41;36.07;101250.38;5096840;28;20427;-87
2023/06/14 06:33:09;;;;;;;21.77;16.00;;;;;;;40.44;35.54;101255.16;5132464;27;20994;-89
2023/06/14 06:35:35;;;;;;;23.47;18.23;;;;;;;40.41;35.89;101261.25;5108919;27;20424;-90
2023/06/14 06:38:01;;;;;;;30.80;20.40;;;;;;;40.43;35.88;101256.28;5120499;27;20938;-88
2023/06/14 06:40:27;;;;;;;35.77;20.77;;;;;;;40.35;36.32;101262.50;5110489;27;20174;-89
2023/06/14 06:42:54;;;;;;;35.57;18.50;;;;;;;40.40;36.27;101265.06;5113570;27;20433;-88
2023/06/14 06:45:20;;;;;;;29.20;17.47;;;;;;;40.41;36.00;101266.69;5110926;27;20178;-90
2023/06/14 06:47:46;;;;;;;27.60;23.40;;;;;;;40.38;35.86;101267.28;5110294;27;20415;-90
2023/06/14 06:50:12;;;;;;;29.97;19.30;;;;;;;40.38;36.17;101278.97;5107311;28;20470;-89
2023/06/14 06:52:38;;;;;;;33.57;20.43;;;;;;;40.31;35.99;101281.34;5110491;28;20419;-88
2023/06/14 06:55:04;;;;;;;28.80;20.33;;;;;;;40.28;36.55;101285.50;5109150;27;20416;-89
2023/06/14 06:57:30;;;;;;;27.17;19.73;;;;;;;40.33;36.13;101286.44;5112085;27;20662;-88
2023/06/14 06:59:57;;;;;;;22.20;16.93;;;;;;;40.39;36.33;101287.91;5110325;28;21038;-88
2023/06/14 07:02:23;;;;;;;23.60;16.87;;;;;;;40.48;36.11;101291.53;5112939;28;20816;-88
2023/06/14 07:04:49;;;;;;;29.77;18.87;;;;;;;40.17;36.22;101297.75;5111269;28;20950;-85
2023/06/14 07:07:15;;;;;;;30.80;17.57;;;;;;;40.40;35.80;101301.22;5096998;28;20183;-85
2023/06/14 07:09:42;;;;;;;28.40;18.53;;;;;;;40.37;36.54;101298.31;5090365;28;20471;-85
2023/06/14 07:12:08;;;;;;;29.63;19.10;;;;;;;40.52;36.29;101306.09;5102905;28;20481;-85
2023/06/14 07:14:34;;;;;;;26.03;16.87;;;;;;;40.54;35.90;101309.28;5091602;28;20486;-86
2023/06/14 07:17:00;;;;;;;36.37;19.40;;;;;;;40.36;36.36;101307.59;5091364;28;20431;-88
2023/06/14 07:19:26;;;;;;;28.07;19.43;;;;;;;40.47;36.10;101312.47;5090150;28;20500;-87
2023/06/14 07:21:52;;;;;;;28.80;20.57;;;;;;;40.65;35.95;101307.09;5091472;28;20179;-87
2023/06/14 07:24:18;;;;;;;23.20;18.47;;;;;;;40.78;35.70;101311.63;5091136;28;20732;-87
2023/06/14 07:26:44;;;;;;;29.47;18.03;;;;;;;40.69;35.77;101314.31;5091886;28;20408;-77
2023/06/14 07:29:10;;;;;;;29.90;17.47;;;;;;;40.52;35.91;101319.69;5093779;28;20896;-85
2023/06/14 07:31:36;;;;;;;24.77;16.67;;;;;;;40.60;35.93;101318.91;5099602;28;20421;-84
2023/06/14 07:34:02;;;;;;;26.20;17.30;;;;;;;40.74;35.66;101319.59;5103402;28;20440;-81
2023/06/14 07:36:28;;;;;;;24.10;17.17;;;;;;;40.81;35.69;101319.94;5100419;28;20205;-86
2023/06/14 07:38:54;;;;;;;21.13;15.40;;;;;;;40.68;35.89;101320.06;5097896;28;20924;-87
2023/06/14 07:41:20;;;;;;;25.80;15.50;;;;;;;40.36;35.74;101319.25;5093020;28;20174;-87
2023/06/14 07:43:46;;;;;;;23.67;14.77;;;;;;;40.63;36.04;101325.63;5098498;28;20417;-81
2023/06/14 07:46:12;;;;;;;27.13;13.70;;;;;;;40.59;35.46;101325.47;5096929;28;20432;-85
2023/06/14 07:48:38;;;;;;;21.93;13.43;;;;;;;40.80;35.42;101328.41;5096976;28;20455;-85
2023/06/14 07:51:04;;;;;;;29.80;13.20;;;;;;;40.72;35.17;101327.28;5092109;28;20441;-85
2023/06/14 07:53:30;;;;;;;27.17;15.83;;;;;;;40.83;35.17;101332.44;5092647;28;20455;-85
2023/06/14 07:55:56;;;;;;;29.40;15.93;;;;;;;40.83;35.25;101335.97;5092106;28;20206;-85
2023/06/14 07:58:22;;;;;;;34.63;15.63;;;;;;;40.90;34.92;101333.63;5092636;28;20954;-85
2023/06/14 08:00:49;;;;;;;36.53;14.60;;;;;;;40.51;35.42;101342.53;5093371;28;20524;-85
2023/06/14 08:03:15;;;;;;;24.13;15.17;;;;;;;40.26;35.70;101343.97;5092757;28;20184;-84
2023/06/14 08:05:41;;;;;;;30.00;13.50;;;;;;;40.84;35.40;101334.84;5092251;28;20496;-85
2023/06/14 08:08:07;;;;;;;24.10;12.10;;;;;;;40.65;35.65;101328.88;5081750;28;20868;-84
2023/06/14 08:10:33;;;;;;;28.73;16.07;;;;;;;40.75;35.32;101332.06;5095620;28;20412;-85
2023/06/14 08:12:59;;;;;;;20.77;14.40;;;;;;;40.79;35.71;101340.44;5097315;28;20477;-85
2023/06/14 08:15:25;;;;;;;29.97;15.80;;;;;;;40.80;35.63;101340.09;5097456;28;20430;-86
2023/06/14 08:17:51;;;;;;;19.50;12.90;;;;;;;40.67;35.66;101341.03;5099264;27;20518;-87
2023/06/14 08:20:17;;;;;;;23.17;10.57;;;;;;;40.80;35.30;101340.09;5108695;28;20174;-89
2023/06/14 08:22:43;;;;;;;22.23;14.20;;;;;;;41.06;34.93;101336.69;5097181;28;20424;-88
2023/06/14 08:25:12;;;;;;;30.23;13.50;;;;;;;41.02;34.92;101344.69;5097724;28;20423;-88
2023/06/14 08:27:37;;;;;;;21.30;12.93;;;;;;;40.88;35.38;101340.44;5097475;28;20487;-87
2023/06/14 08:30:04;;;;;;;20.13;11.20;;;;;;;40.87;35.28;101341.56;5097103;28;20463;-88
2023/06/14 08:32:30;;;;;;;19.07;11.33;;;;;;;40.90;35.00;101344.50;5097588;27;20950;-88
2023/06/14 08:34:56;;;;;;;20.17;11.50;;;;;;;41.00;34.95;101357.00;5097618;28;20420;-88
2023/06/14 08:37:22;;;;;;;16.73;11.40;;;;;;;40.78;35.58;101358.66;5097852;27;20181;-86
2023/06/14 08:39:48;;;;;;;20.20;11.60;;;;;;;40.65;35.34;101354.13;5097433;28;20190;-86
2023/06/14 08:42:15;;;;;;;20.67;12.77;;;;;;;40.67;35.48;101354.63;5097149;28;20419;-86
2023/06/14 08:44:41;;;;;;;26.83;12.40;;;;;;;40.76;35.78;101352.75;5096887;28;20170;-88
2023/06/14 08:47:09;;;;;;;24.37;12.13;;;;;;;41.01;35.30;101366.78;5097540;28;20431;-85
2023/06/14 08:49:40;;;;;;;26.40;11.77;;;;;;;40.95;34.90;101362.59;5115203;27;20524;-86
2023/06/14 08:52:10;;;;;;;18.57;11.60;;;;;;;40.45;35.84;101377.19;5086552;27;20419;-87
2023/06/14 08:54:43;;;;;;;24.33;10.90;;;;;;;40.88;35.08;101371.16;5098888;28;20963;-87
2023/06/14 08:57:15;;;;;;;19.23;12.90;;;;;;;41.01;34.63;101372.22;5100055;28;20415;-85
2023/06/14 08:59:48;;;;;;;24.13;12.03;;;;;;;41.16;34.93;101377.22;5098667;28;20463;-86
2023/06/14 09:02:17;;;;;;;23.20;8.73;;;;;;;41.21;34.74;101387.16;5096878;28;20800;-86
2023/06/14 09:04:44;;;;;;;22.60;9.83;;;;;;;41.21;34.10;101371.63;5099157;27;20440;-84
2023/06/14 09:07:12;;;;;;;20.07;8.70;;;;;;;41.23;34.17;101377.56;5089896;28;20417;-87
2023/06/14 09:09:41;;;;;;;14.50;8.20;;;;;;;41.30;33.30;101374.34;5123052;27;20454;-88
2023/06/14 09:12:10;;;;;;;16.70;9.97;;;;;;;41.15;33.38;101372.09;5132904;27;20459;-88
2023/06/14 09:14:39;;;;;;;13.23;7.83;;;;;;;40.99;33.75;101388.84;5101590;27;20453;-88
2023/06/14 09:17:06;;;;;;;15.10;7.77;;;;;;;41.21;33.59;101376.28;5090858;28;20443;-88
2023/06/14 09:19:32;;;;;;;22.67;8.40;;;;;;;41.38;33.57;101368.16;5098458;27;20412;-88
2023/06/14 09:21:58;;;;;;;19.30;10.70;;;;;;;41.15;34.10;101367.44;5100655;27;20521;-85
2023/06/14 09:24:27;;;;;;;24.90;10.30;;;;;;;41.02;34.44;101366.47;5105351;27;20432;-85
2023/06/14 09:26:53;;;;;;;15.23;8.10;;;;;;;41.21;34.19;101382.50;5108712;27;20664;-85
2023/06/14 09:29:19;;;;;;;23.13;12.10;;;;;;;41.11;34.40;101362.94;5101096;27;20456;-86
2023/06/14 09:31:48;;;;;;;22.17;11.20;;;;;;;41.04;33.81;101368.84;5090525;28;20593;-83
2023/06/14 09:34:18;;;;;;;23.37;9.80;;;;;;;41.20;33.57;101353.69;5090707;27;20934;-86
2023/06/14 09:36:44;;;;;;;22.33;10.77;;;;;;;41.14;33.70;101371.28;5105975;27;20853;-88
2023/06/14 09:39:09;;;;;;;20.43;10.70;;;;;;;41.23;33.19;101360.41;5080366;27;20993;-86
2023/06/14 09:41:38;;;;;;;23.47;10.20;;;;;;;41.23;33.13;101376.75;5077286;28;20510;-85
2023/06/14 09:44:06;;;;;;;19.23;9.17;;;;;;;41.45;33.21;101375.88;5078288;27;20804;-85
2023/06/14 09:46:33;;;;;;;16.77;8.70;;;;;;;41.24;33.69;101375.63;5079480;28;20432;-81
2023/06/14 09:48:59;;;;;;;12.70;7.60;;;;;;;41.07;33.91;101374.47;5078195;28;20842;-84
2023/06/14 09:51:30;;;;;;;32.43;15.67;;;;;;;41.24;32.90;101370.97;5104482;27;20412;-77
2023/06/14 09:54:05;;;;;;;27.83;20.53;;;;;;;41.48;32.72;101375.22;5131101;27;20415;-90
2023/06/14 09:56:41;;;;;;;23.20;15.63;;;;;;;41.20;33.47;101380.13;5100169;28;20439;-90
2023/06/14 09:59:09;;;;;;;20.37;13.60;;;;;;;41.48;33.25;101372.50;5081216;28;20541;-92
2023/06/14 10:01:41;;;;;;;17.37;11.83;;;;;;;41.45;33.33;101375.88;5093614;28;20795;-91
2023/06/14 10:04:08;;;;;;;21.50;8.97;;;;;;;41.47;33.68;101376.34;5093737;28;20510;-88
2023/06/14 10:06:39;;;;;;;24.87;15.00;;;;;;;41.48;34.40;101375.22;5091644;28;20418;-91
2023/06/14 10:09:08;;;;;;;20.27;11.90;;;;;;;41.13;35.28;101380.59;5101605;27;20456;-89
2023/06/14 10:11:35;;;;;;;25.53;15.20;;;;;;;41.13;35.06;101375.16;5093201;28;20523;-89
2023/06/14 10:14:03;;;;;;;31.20;17.70;;;;;;;41.15;34.89;101380.25;5089691;28;20429;-89
2023/06/14 10:16:52;;;;;;;23.73;14.20;;;;;;;41.14;35.07;101365.84;5087335;28;20994;-87
2023/06/14 10:19:34;;;;;;;32.10;19.60;;;;;;;40.79;35.79;101373.88;5079511;28;20505;-88
2023/06/14 10:22:08;;;;;;;37.33;22.80;;;;;;;40.50;36.56;101379.00;5102089;28;20424;-87
2023/06/14 10:24:42;;;;;;;41.57;22.10;;;;;;;40.67;36.55;101365.50;5091069;28;20428;-86
2023/06/14 10:27:11;;;;;;;28.97;16.23;;;;;;;40.89;36.27;101363.84;5098337;28;20504;-87
2023/06/14 10:30:01;;;;;;;33.73;19.03;;;;;;;40.90;35.87;101365.44;5107332;28;20483;-88
2023/06/14 10:32:28;;;;;;;26.83;16.50;;;;;;;40.97;35.67;101357.63;5104499;28;20433;-87
2023/06/14 10:34:57;;;;;;;36.03;15.70;;;;;;;40.62;36.19;101356.66;5088739;28;20420;-84
2023/06/14 10:37:24;;;;;;;25.00;13.07;;;;;;;41.04;35.65;101344.38;5091037;28;20416;-87
2023/06/14 10:39:51;;;;;;;33.07;16.07;;;;;;;41.11;35.69;101343.91;5091694;28;20449;-87
2023/06/14 10:42:17;;;;;;;26.63;12.17;;;;;;;40.90;35.72;101330.06;5095707;28;20434;-87
2023/06/14 10:44:50;;;;;;;22.83;9.77;;;;;;;41.22;34.99;101324.22;5108794;28;20427;-88
2023/06/14 10:47:34;;;;;;;17.83;10.27;;;;;;;41.29;34.60;101313.66;5105551;28;20857;-88
2023/06/14 10:50:06;;;;;;;15.27;8.70;;;;;;;41.60;33.84;101308.09;5087211;28;20465;-87
2023/06/14 10:52:41;;;;;;;15.30;9.10;;;;;;;41.66;33.55;101306.00;5079789;28;20418;-87
2023/06/14 10:55:18;;;;;;;20.00;9.43;;;;;;;41.70;33.16;101304.25;5090466;28;20518;-86
2023/06/14 10:57:49;;;;;;;22.70;9.13;;;;;;;41.96;32.97;101303.44;5084573;28;20958;-86
2023/06/14 11:00:15;;;;;;;38.07;9.70;;;;;;;41.43;34.21;101296.41;5097336;28;20435;-89
2023/06/14 11:03:16;;;;;;;15.37;9.33;;;;;;;41.44;34.39;101296.09;5084320;28;20431;-87
2023/06/14 11:05:52;;;;;;;18.63;8.30;;;;;;;41.64;34.11;101296.56;5089427;28;20441;-87
2023/06/14 11:08:40;;;;;;;21.90;9.27;;;;;;;41.41;34.03;101304.09;5080901;28;20419;-88
2023/06/14 11:11:07;;;;;;;13.50;6.73;;;;;;;41.79;33.05;101283.25;5110084;27;20435;-87
2023/06/14 11:13:34;;;;;;;21.03;8.43;;;;;;;41.63;33.21;101281.34;5105484;28;20471;-89
2023/06/14 11:16:00;;;;;;;22.80;10.30;;;;;;;41.54;33.05;101281.34;5113627;28;20423;-88
2023/06/14 11:18:28;;;;;;;20.47;8.60;;;;;;;41.50;33.29;101280.41;5089373;28;20419;-87
2023/06/14 11:20:54;;;;;;;20.10;7.60;;;;;;;41.75;32.83;101267.91;5096231;28;20490;-86